Time;durP1;ratioP1;P1;durP2;ratioP2;P2;SDS_P1;SDS_P2;PMS_P1;PMS_P2;Temp;Humidity;BMP_temperature;BMP_pressure;BME280_temperature;BME280_humidity;BME280_pressure;Samples;Min_cycle;Max_cycle;Signal;HPM_P1;HPM_P2
2021/04/13 00:03:11;;;;;;;6.87;2.87;;;4.40;99.90;;;;;;6252540;22;20000;-81
2021/04/13 00:05:44;;;;;;;7.37;3.33;;;4.50;99.90;;;;;;6203213;22;20003;-82
2021/04/13 00:08:26;;;;;;;6.67;2.83;;;4.30;99.90;;;;;;6229780;23;20000;-83
2021/04/13 00:11:04;;;;;;;7.53;3.47;;;4.30;99.90;;;;;;6242764;22;20022;-84
2021/04/13 00:13:42;;;;;;;8.17;3.43;;;4.20;99.90;;;;;;6213118;22;20105;-80
2021/04/13 00:19:32;;;;;;;7.93;3.63;;;4.00;99.90;;;;;;6272544;22;20012;-82
2021/04/13 00:25:03;;;;;;;5.63;2.93;;;3.90;99.90;;;;;;6237517;22;20036;-84
2021/04/13 00:27:37;;;;;;;5.93;2.90;;;3.90;99.90;;;;;;6221196;23;20015;-85
2021/04/13 00:30:21;;;;;;;7.50;3.37;;;3.80;99.90;;;;;;6221741;22;20015;-84
2021/04/13 00:33:00;;;;;;;8.43;3.33;;;3.70;99.90;;;;;;6246834;23;19997;-83
2021/04/13 00:35:41;;;;;;;9.43;3.20;;;3.70;99.90;;;;;;6192738;22;20000;-84
2021/04/13 00:38:30;;;;;;;7.83;3.43;;;3.60;99.90;;;;;;6214872;22;20019;-82
2021/04/13 00:41:12;;;;;;;7.20;3.87;;;3.60;99.90;;;;;;6277283;22;20004;-83
2021/04/13 00:43:52;;;;;;;7.70;3.33;;;3.50;99.90;;;;;;6251767;22;20004;-82
2021/04/13 00:46:25;;;;;;;7.17;3.33;;;3.50;99.90;;;;;;6226739;22;20000;-84
2021/04/13 00:49:01;;;;;;;6.47;3.17;;;3.50;99.90;;;;;;6227477;22;20007;-84
2021/04/13 00:51:37;;;;;;;5.40;3.00;;;3.40;99.90;;;;;;6251978;23;20011;-84
2021/04/13 00:54:32;;;;;;;8.07;3.45;;;3.40;99.90;;;;;;6208842;23;20016;-82
2021/04/13 00:57:10;;;;;;;6.60;3.27;;;3.40;99.90;;;;;;6217231;22;20228;-83
2021/04/13 00:59:52;;;;;;;6.67;3.43;;;3.40;99.90;;;;;;6221476;22;20008;-85
2021/04/13 01:02:24;;;;;;;7.43;3.13;;;3.40;99.90;;;;;;6222031;23;20004;-82
2021/04/13 01:04:57;;;;;;;9.63;3.83;;;3.30;99.90;;;;;;6222453;22;20004;-84
2021/04/13 01:07:39;;;;;;;6.40;3.30;;;3.30;99.90;;;;;;6250826;22;20010;-83
2021/04/13 01:10:13;;;;;;;7.67;3.57;;;3.30;99.90;;;;;;6282592;22;19993;-83
2021/04/13 01:15:43;;;;;;;7.88;3.33;;;3.30;99.90;;;;;;6241420;22;20043;-82
2021/04/13 01:18:21;;;;;;;6.77;3.30;;;3.30;99.90;;;;;;6307799;22;20018;-83
2021/04/13 01:20:59;;;;;;;7.37;3.13;;;3.30;99.90;;;;;;6304481;22;19995;-84
2021/04/13 01:23:42;;;;;;;8.93;3.73;;;3.30;99.90;;;;;;6282470;22;19996;-84
2021/04/13 01:29:15;;;;;;;8.87;3.77;;;3.20;99.90;;;;;;6299745;22;20053;-84
2021/04/13 01:49:48;;;;;;;8.07;3.87;;;3.00;99.90;;;;;;6234297;22;20036;-84
2021/04/13 01:52:26;;;;;;;7.87;3.83;;;3.20;99.90;;;;;;6234938;22;20039;-83
2021/04/13 01:55:01;;;;;;;8.50;3.83;;;3.20;99.90;;;;;;6255069;22;20019;-84
2021/04/13 01:57:41;;;;;;;7.73;3.80;;;3.20;99.90;;;;;;6257171;22;20000;-84
2021/04/13 02:00:16;;;;;;;7.07;3.70;;;3.20;99.90;;;;;;6282370;22;20003;-82
2021/04/13 02:03:12;;;;;;;7.22;3.33;;;3.30;99.90;;;;;;6257380;22;19999;-84
2021/04/13 02:09:05;;;;;;;6.90;3.50;;;3.20;99.90;;;;;;6277255;22;20024;-85
2021/04/13 02:11:43;;;;;;;7.33;3.80;;;3.10;99.90;;;;;;6202699;22;20019;-84
2021/04/13 02:17:13;;;;;;;8.17;3.87;;;3.10;99.90;;;;;;6272719;22;20074;-82
2021/04/13 02:19:50;;;;;;;6.93;3.53;;;3.10;99.90;;;;;;6282098;22;20003;-84
2021/04/13 02:22:32;;;;;;;8.70;4.00;;;3.10;99.90;;;;;;6282308;22;20003;-84
2021/04/13 02:28:32;;;;;;;9.60;3.33;;;3.00;99.90;;;;;;6245138;23;20017;-85
2021/04/13 02:31:36;;;;;;;8.80;4.43;;;3.00;99.90;;;;;;6208790;23;20000;-84
2021/04/13 03:17:14;;;;;;;6.77;4.20;;;2.80;99.90;;;;;;6309330;22;20023;-84
2021/04/13 03:19:46;;;;;;;7.53;4.70;;;2.70;99.90;;;;;;6257808;22;20018;-83
2021/04/13 03:25:23;;;;;;;10.10;4.93;;;2.80;99.90;;;;;;6336358;22;20060;-84
2021/04/13 03:30:54;;;;;;;11.37;5.33;;;2.80;99.90;;;;;;6334066;22;20031;-84
2021/04/13 03:33:28;;;;;;;8.73;5.10;;;2.80;99.90;;;;;;6288211;22;20006;-85
2021/04/13 03:36:10;;;;;;;9.50;5.07;;;2.70;99.90;;;;;;6311192;22;20006;-86
2021/04/13 03:38:40;;;;;;;;;;;2.60;99.90;;;;;;6289142;22;19999;-85
2021/04/13 03:41:20;;;;;;;10.40;5.13;;;2.50;99.90;;;;;;6312400;22;19927;-84
2021/04/13 03:43:59;;;;;;;8.43;5.00;;;2.50;99.90;;;;;;6287674;22;20007;-84
2021/04/13 03:49:31;;;;;;;11.77;5.53;;;2.40;99.90;;;;;;6338661;22;20007;-84
2021/04/13 03:52:13;;;;;;;11.90;6.10;;;2.40;99.90;;;;;;6287674;22;20014;-84
2021/04/13 03:54:52;;;;;;;11.13;5.63;;;2.40;99.90;;;;;;6313248;22;20009;-85
2021/04/13 03:57:47;;;;;;;16.90;5.47;;;2.30;99.90;;;;;;6223257;22;20020;31
2021/04/13 04:00:22;;;;;;;12.83;5.37;;;2.20;99.90;;;;;;6224170;23;20017;-84
2021/04/13 04:02:55;;;;;;;9.47;5.40;;;2.20;99.90;;;;;;6202026;22;20004;-82
2021/04/13 04:05:44;;;;;;;10.63;5.70;;;2.10;99.90;;;;;;6239007;22;20011;-84
2021/04/13 04:08:31;;;;;;;13.33;5.60;;;2.10;99.90;;;;;;6288282;22;20003;-85
2021/04/13 04:11:08;;;;;;;13.73;5.90;;;2.10;99.90;;;;;;6288564;22;20018;-84
2021/04/13 04:13:51;;;;;;;9.48;5.40;;;2.10;99.90;;;;;;6287469;22;20011;-85
2021/04/13 04:16:50;;;;;;;9.37;5.47;;;2.00;99.90;;;;;;6341331;22;20018;-85
2021/04/13 04:19:24;;;;;;;10.87;5.37;;;2.00;99.90;;;;;;6311360;22;20007;-83
2021/04/13 04:22:04;;;;;;;9.23;5.70;;;2.00;99.90;;;;;;6287216;22;20018;-85
2021/04/13 04:24:44;;;;;;;11.83;6.77;;;2.00;99.90;;;;;;6314379;22;20007;-84
2021/04/13 04:27:30;;;;;;;9.13;5.73;;;2.00;99.90;;;;;;6287502;22;20003;-85
2021/04/13 04:30:15;;;;;;;11.27;6.10;;;2.00;99.90;;;;;;6287778;22;20022;-84
2021/04/13 04:32:46;;;;;;;12.93;6.30;;;2.00;99.90;;;;;;6288619;22;20011;-82
2021/04/13 04:35:34;;;;;;;11.40;6.83;;;1.90;99.90;;;;;;6312861;22;19999;-82
2021/04/13 04:38:24;;;;;;;11.07;6.53;;;1.90;99.90;;;;;;6312821;22;20241;-83
2021/04/13 04:46:42;;;;;;;12.15;6.10;;;1.80;99.90;;;;;;6278114;22;20019;-84
2021/04/13 04:52:01;;;;;;;11.03;6.53;;;1.80;99.90;;;;;;6215998;23;20012;-84
2021/04/13 04:54:34;;;;;;;12.00;7.03;;;1.80;99.90;;;;;;6240974;22;20005;-80
2021/04/13 04:57:14;;;;;;;12.57;6.57;;;1.80;99.90;;;;;;6227505;23;20020;-83
2021/04/13 04:59:42;;;;;;;14.30;7.53;;;1.90;99.90;;;;;;6224818;22;20040;-84
2021/04/13 05:02:10;;;;;;;12.57;7.07;;;1.80;99.90;;;;;;6219166;23;20019;-83
2021/04/13 05:04:41;;;;;;;12.83;7.43;;;1.80;99.90;;;;;;6244308;23;20009;-83
2021/04/13 05:07:20;;;;;;;12.73;7.20;;;1.80;99.90;;;;;;6194943;23;20020;-83
2021/04/13 05:09:53;;;;;;;14.77;6.88;;;1.80;99.90;;;;;;6223115;23;20026;-84
2021/04/13 05:12:22;;;;;;;12.67;7.33;;;1.90;99.90;;;;;;6198943;23;20011;-82
2021/04/13 05:14:51;;;;;;;13.38;7.60;;;1.90;99.90;;;;;;6224125;22;20015;-84
2021/04/13 05:17:20;;;;;;;12.93;7.07;;;1.90;99.90;;;;;;6224695;23;20023;-81
2021/04/13 05:19:52;;;;;;;17.15;7.90;;;1.80;99.90;;;;;;6225201;23;20019;-84
2021/04/13 05:22:22;;;;;;;16.73;8.17;;;1.90;99.90;;;;;;6225653;23;20014;-84
2021/04/13 05:24:53;;;;;;;17.93;8.40;;;1.90;99.90;;;;;;6250570;22;20019;-84
2021/04/13 05:27:21;;;;;;;12.47;7.33;;;2.00;99.90;;;;;;6228447;22;20024;-84
2021/04/13 05:29:52;;;;;;;17.70;7.65;;;2.00;99.90;;;;;;6275650;22;20011;-85
2021/04/13 05:32:20;;;;;;;15.03;8.27;;;2.00;99.90;;;;;;6250482;22;20004;-83
2021/04/13 05:34:48;;;;;;;15.32;8.32;;;2.00;99.90;;;;;;6225635;23;20007;-83
2021/04/13 05:37:23;;;;;;;14.50;8.00;;;2.10;99.90;;;;;;6225903;22;20016;-83
2021/04/13 05:39:52;;;;;;;16.73;8.30;;;2.20;99.90;;;;;;6274938;23;20312;-84
2021/04/13 05:42:36;;;;;;;16.50;8.27;;;2.20;99.90;;;;;;6225460;23;20004;-84
2021/04/13 05:45:14;;;;;;;15.07;8.47;;;2.20;99.90;;;;;;6250447;23;20008;-83
2021/04/13 05:47:42;;;;;;;14.90;8.23;;;2.20;99.90;;;;;;6202092;23;20004;-84
2021/04/13 05:50:18;;;;;;;16.37;8.73;;;2.30;99.90;;;;;;6225271;23;20012;-83
2021/04/13 05:52:51;;;;;;;13.98;8.07;;;2.30;99.90;;;;;;6225915;23;19999;-83
2021/04/13 05:55:35;;;;;;;;;;;;;;;;;;;;;
2021/04/13 05:58:23;;;;;;;18.50;8.20;;;2.40;99.90;;;;;;6248158;23;20008;-83
2021/04/13 06:01:09;;;;;;;14.23;8.47;;;2.50;99.90;;;;;;6251761;22;20012;-82
2021/04/13 06:03:43;;;;;;;16.20;9.00;;;2.70;99.90;;;;;;6223236;23;20008;-80
2021/04/13 06:06:11;;;;;;;13.27;7.77;;;2.70;99.90;;;;;;6224465;23;20011;-83
2021/04/13 06:08:42;;;;;;;19.60;8.40;;;2.80;99.90;;;;;;6221274;22;20014;-82
2021/04/13 06:11:23;;;;;;;11.77;7.63;;;2.90;99.90;;;;;;6249538;23;19996;-83
2021/04/13 06:14:02;;;;;;;13.73;8.03;;;3.00;99.90;;;;;;6249354;23;20015;-82
2021/04/13 06:16:38;;;;;;;16.80;9.00;;;2.90;99.90;;;;;;6248833;23;20008;-82
2021/04/13 06:19:35;;;;;;;16.87;8.27;;;3.10;99.90;;;;;;6194782;23;20005;-81
2021/04/13 06:22:11;;;;;;;15.73;8.93;;;3.10;99.90;;;;;;6191322;23;20267;-83
2021/04/13 06:24:52;;;;;;;17.57;8.97;;;3.10;99.90;;;;;;6195400;23;20019;-83
2021/04/13 06:27:41;;;;;;;19.85;9.35;;;3.40;99.90;;;;;;6232971;23;20311;-82
2021/04/13 06:30:26;;;;;;;;;;;;;;;;;;;;;
2021/04/13 06:33:02;;;;;;;15.60;8.23;;;3.50;99.90;;;;;;6168523;23;20021;-82
2021/04/13 06:35:34;;;;;;;16.00;8.47;;;3.50;99.90;;;;;;6168269;23;20005;-82
2021/04/13 06:38:33;;;;;;;15.10;8.40;;;3.60;99.90;;;;;;6192536;23;20015;-82
2021/04/13 06:41:38;;;;;;;13.77;7.20;;;3.70;99.90;;;;;;6185929;23;20004;-83
2021/04/13 06:44:41;;;;;;;15.43;8.60;;;4.00;99.90;;;;;;6191093;23;20237;-85
2021/04/13 06:47:26;;;;;;;16.30;8.00;;;3.90;99.90;;;;;;6192602;23;20004;-83
2021/04/13 06:50:23;;;;;;;15.37;7.83;;;3.80;99.90;;;;;;6167099;23;20024;-83
2021/04/13 06:53:16;;;;;;;;;;;;;;;;;;;;;
2021/04/13 06:56:35;;;;;;;;;;;;;;;;;;;;;
2021/04/13 07:00:14;;;;;;;13.27;7.43;;;4.10;99.90;;;;;;6267574;22;20015;-83
2021/04/13 08:03:02;;;;;;;15.35;5.88;;;5.20;99.90;;;;;;6227880;22;20020;-82
2021/04/13 08:11:14;;;;;;;7.57;4.10;;;5.90;99.90;;;;;;6221396;22;20015;-84
2021/04/13 08:22:51;;;;;;;8.05;3.08;;;7.00;99.90;;;;;;6209886;22;20019;-78
2021/04/13 08:25:35;;;;;;;5.67;2.50;;;7.50;99.50;;;;;;6146944;22;20963;31
2021/04/13 08:28:52;;;;;;;6.25;2.80;;;7.70;96.90;;;;;;6135124;23;20209;-84
2021/04/13 08:37:09;;;;;;;7.10;2.60;;;7.50;94.20;;;;;;6179120;22;20023;-79
2021/04/13 08:39:55;;;;;;;6.93;2.17;;;7.60;95.00;;;;;;6180281;22;20819;-82
2021/04/13 08:42:33;;;;;;;10.88;2.05;;;7.50;94.00;;;;;;6222403;23;20005;-83
2021/04/13 09:05:11;;;;;;;7.40;2.22;;;8.90;85.40;;;;;;6190765;22;20012;-84
2021/04/13 09:13:36;;;;;;;5.93;2.08;;;9.00;82.10;;;;;;6229570;22;20008;-83
2021/04/13 09:19:24;;;;;;;7.80;2.33;;;9.40;77.10;;;;;;6225380;22;20037;-84
2021/04/13 09:21:55;;;;;;;6.60;2.10;;;9.50;74.60;;;;;;6180620;23;20050;-83
2021/04/13 09:27:39;;;;;;;8.15;2.53;;;9.20;75.30;;;;;;6175948;22;20020;-82
2021/04/13 09:30:27;;;;;;;5.47;2.13;;;9.10;74.50;;;;;;6223661;22;20016;-85
2021/04/13 09:35:58;;;;;;;8.48;2.58;;;9.70;73.40;;;;;;6262799;22;20032;-84
2021/04/13 09:46:01;;;;;;;8.02;2.28;;;9.40;73.40;;;;;;4409846;23;20082;-85
2021/04/13 09:51:59;;;;;;;7.38;2.42;;;8.90;71.90;;;;;;4608475;23;20046;-86
2021/04/13 10:19:21;;;;;;;4.97;1.38;;;9.70;68.80;;;;;;5375084;23;20054;-83
2021/04/13 10:22:40;;;;;;;5.68;1.40;;;9.80;67.50;;;;;;3543809;40;20034;-90
2021/04/13 10:25:31;;;;;;;;;;;9.60;67.20;;;;;;3545879;40;20026;-84
2021/04/13 10:28:51;;;;;;;8.23;1.40;;;8.90;69.90;;;;;;3547154;40;19949;-84
2021/04/13 10:32:10;;;;;;;5.35;1.83;;;8.20;73.80;;;;;;3563543;40;20074;-86
2021/04/13 10:35:08;;;;;;;8.48;1.63;;;8.10;75.90;;;;;;3550374;40;20045;-84
2021/04/13 10:38:25;;;;;;;9.30;1.77;;;8.20;74.60;;;;;;3558982;40;20376;-83
2021/04/13 10:41:37;;;;;;;5.43;1.95;;;8.70;75.00;;;;;;3547220;40;20078;-83
2021/04/13 10:44:45;;;;;;;11.63;1.60;;;9.30;71.50;;;;;;3543421;40;20059;-83
2021/04/13 10:47:53;;;;;;;5.28;1.70;;;9.90;68.30;;;;;;3546468;40;20038;-84
2021/04/13 10:50:51;;;;;;;9.25;1.83;;;10.30;67.00;;;;;;3553050;40;20401;-84
2021/04/13 10:53:28;;;;;;;3.17;1.33;;;11.50;65.10;;;;;;3544210;40;20047;-86
2021/04/13 10:56:40;;;;;;;7.80;1.50;;;12.50;61.80;;;;;;3550542;40;20067;-86
2021/04/13 11:03:02;;;;;;;7.05;1.70;;;13.10;56.90;;;;;;3687727;23;20062;-87
2021/04/13 11:16:18;;;;;;;7.55;2.13;;;11.30;58.70;;;;;;3624477;23;20074;-86
2021/04/13 11:19:19;;;;;;;3.67;1.48;;;11.40;58.40;;;;;;3549767;40;20030;-84
2021/04/13 11:22:23;;;;;;;4.35;1.30;;;11.70;57.10;;;;;;3539336;40;20043;-83
2021/04/13 11:25:29;;;;;;;9.98;1.75;;;11.50;57.30;;;;;;3534962;40;20038;-84
2021/04/13 11:28:47;;;;;;;4.25;1.30;;;10.80;58.30;;;;;;3538419;40;20030;-83
2021/04/13 11:31:59;;;;;;;5.70;1.50;;;10.30;61.10;;;;;;3534833;40;20045;-84
2021/04/13 11:35:01;;;;;;;11.35;1.73;;;10.20;61.40;;;;;;3513119;40;20083;-81
2021/04/13 11:38:01;;;;;;;5.00;1.50;;;10.00;61.80;;;;;;3507961;41;20055;-83
2021/04/13 11:41:06;;;;;;;12.27;2.03;;;10.00;62.00;;;;;;3504931;40;20064;-83
2021/04/13 11:43:39;;;;;;;7.00;1.45;;;10.30;62.90;;;;;;3517972;40;20060;-83
2021/04/13 11:46:14;;;;;;;4.35;1.00;;;10.40;62.20;;;;;;3507569;40;20069;-82
2021/04/13 11:48:48;;;;;;;7.03;1.25;;;10.30;60.90;;;;;;3517045;40;20392;-80
2021/04/13 11:51:40;;;;;;;4.88;1.17;;;9.80;61.90;;;;;;3524254;40;20064;-85
2021/04/13 11:54:54;;;;;;;6.05;1.42;;;9.50;62.30;;;;;;3510255;40;20099;-83
2021/04/13 11:57:24;;;;;;;6.28;1.63;;;9.30;64.00;;;;;;3483426;41;20081;-84
2021/04/13 12:00:30;;;;;;;4.88;1.23;;;9.30;64.10;;;;;;3468133;41;20073;-82
2021/04/13 12:03:33;;;;;;;6.28;1.50;;;9.50;63.10;;;;;;3495605;41;20497;-82
2021/04/13 12:06:04;;;;;;;6.20;1.77;;;9.70;63.00;;;;;;3474706;41;20109;-81
2021/04/13 12:08:46;;;;;;;9.07;1.58;;;9.70;63.40;;;;;;3477265;41;20070;-82
2021/04/13 12:11:17;;;;;;;5.70;1.40;;;9.90;63.80;;;;;;3499060;41;20072;-81
2021/04/13 12:13:48;;;;;;;9.07;1.77;;;10.10;64.60;;;;;;3496296;41;20076;-81
2021/04/13 12:16:19;;;;;;;7.68;1.75;;;10.50;63.10;;;;;;3500066;41;20068;-81
2021/04/13 12:19:06;;;;;;;6.57;1.30;;;11.10;59.40;;;;;;3491991;41;20095;-81
2021/04/13 12:21:43;;;;;;;7.15;1.35;;;12.40;56.40;;;;;;3492999;41;20081;-83
2021/04/13 12:24:49;;;;;;;5.65;1.10;;;14.10;52.40;;;;;;3510247;41;20123;-84
2021/04/13 12:27:45;;;;;;;4.65;1.17;;;16.50;47.10;;;;;;3494184;41;20080;-87
2021/04/13 12:30:56;;;;;;;5.38;1.65;;;19.60;40.50;;;;;;3510524;41;20606;-83
2021/04/13 12:34:02;;;;;;;4.95;1.15;;;20.80;36.10;;;;;;3506904;41;20080;-81
2021/04/13 12:37:00;;;;;;;5.00;1.13;;;21.70;31.80;;;;;;3450428;41;20366;-84
2021/04/13 12:40:00;;;;;;;3.30;1.13;;;21.60;33.00;;;;;;3463300;40;20078;-83
2021/04/13 12:42:46;;;;;;;5.57;1.10;;;18.60;34.10;;;;;;3530537;40;20341;-86
2021/04/13 12:45:45;;;;;;;7.65;1.50;;;15.80;39.00;;;;;;3538679;40;20083;-83
2021/04/13 12:52:31;;;;;;;4.47;1.67;;;13.00;47.80;;;;;;3537664;40;20024;-84
2021/04/13 13:01:56;;;;;;;3.92;1.35;;;12.40;48.10;;;;;;3538461;40;20283;-84
2021/04/13 13:04:36;;;;;;;2.75;1.17;;;12.40;46.60;;;;;;3551514;40;20081;-83
2021/04/13 13:07:07;;;;;;;6.55;1.30;;;12.70;46.00;;;;;;3530896;40;20122;-84
2021/04/13 13:09:38;;;;;;;6.40;1.75;;;13.50;44.80;;;;;;3545086;40;20035;-85
2021/04/13 13:12:15;;;;;;;7.85;1.73;;;15.50;42.10;;;;;;3542258;40;20095;-87
2021/04/13 13:14:46;;;;;;;7.30;1.70;;;17.10;39.00;;;;;;3530383;40;20187;-85
2021/04/13 13:17:31;;;;;;;5.57;1.48;;;16.80;38.30;;;;;;3534602;40;20066;-83
2021/04/13 13:19:59;;;;;;;5.10;1.67;;;14.10;42.00;;;;;;3540616;40;20043;-85
2021/04/13 13:22:34;;;;;;;5.53;2.05;;;13.00;45.40;;;;;;3547707;40;20023;-84
2021/04/13 13:25:13;;;;;;;6.30;1.73;;;12.10;47.50;;;;;;3542744;40;20039;-83
2021/04/13 13:30:41;;;;;;;4.38;1.67;;;11.40;50.20;;;;;;3588489;23;19945;-87
2021/04/13 13:33:12;;;;;;;5.57;1.75;;;11.70;50.60;;;;;;3556430;40;20034;-84
2021/04/13 13:35:41;;;;;;;11.25;1.75;;;12.10;49.90;;;;;;3543819;40;20034;-85
2021/04/13 13:38:12;;;;;;;;;;;12.30;49.40;;;;;;3538244;40;20038;-86
2021/04/13 13:40:43;;;;;;;4.30;1.40;;;12.40;49.40;;;;;;3553507;40;19934;-85
2021/04/13 13:43:34;;;;;;;4.07;1.35;;;12.50;48.70;;;;;;3554059;40;20039;-86
2021/04/13 13:46:11;;;;;;;6.10;2.20;;;12.40;47.60;;;;;;3542785;40;20042;-85
2021/04/13 13:48:39;;;;;;;4.75;1.45;;;12.60;48.00;;;;;;3552935;40;20054;-86
2021/04/13 13:51:11;;;;;;;5.57;1.67;;;13.30;47.20;;;;;;3542851;40;20042;-85
2021/04/13 13:53:47;;;;;;;6.50;1.75;;;14.20;46.10;;;;;;3543303;40;20300;-85
2021/04/13 13:56:36;;;;;;;7.00;1.60;;;15.90;42.20;;;;;;3543276;40;20086;-83
2021/04/13 13:59:25;;;;;;;;;;;16.70;39.50;;;;;;3542020;40;20087;-85
2021/04/13 14:02:08;;;;;;;7.40;1.83;;;16.30;39.10;;;;;;3539948;40;19973;-88
2021/04/13 14:05:20;;;;;;;4.90;1.58;;;15.50;40.40;;;;;;3533625;40;20083;-85
2021/04/13 14:07:51;;;;;;;6.00;1.42;;;14.20;47.40;;;;;;3536316;40;20062;-83
2021/04/13 14:10:33;;;;;;;7.30;1.90;;;13.30;50.30;;;;;;3546175;40;20389;-86
2021/04/13 14:13:14;;;;;;;4.82;1.73;;;12.40;53.30;;;;;;3547525;40;20297;-83
2021/04/13 14:15:44;;;;;;;6.00;1.80;;;12.10;56.80;;;;;;3535812;40;20035;-85
2021/04/13 14:18:25;;;;;;;5.70;1.60;;;13.60;57.40;;;;;;3522862;40;20086;-89
2021/04/13 14:21:09;;;;;;;5.78;2.00;;;16.00;52.00;;;;;;3529277;40;20422;-83
2021/04/13 14:23:43;;;;;;;6.32;2.00;;;17.90;49.30;;;;;;3514652;40;20091;-85
2021/04/13 14:26:19;;;;;;;9.25;2.30;;;18.40;47.50;;;;;;3530727;40;20059;-86
2021/04/13 14:29:08;;;;;;;6.70;2.00;;;17.70;47.10;;;;;;3532755;40;20091;-85
2021/04/13 14:31:42;;;;;;;6.53;2.70;;;16.70;48.60;;;;;;3532026;40;20079;-86
2021/04/13 14:34:13;;;;;;;8.43;2.70;;;15.80;50.80;;;;;;3538254;40;20074;-87
2021/04/13 14:36:44;;;;;;;;;;;15.00;51.80;;;;;;3552824;40;20066;-86
2021/04/13 14:39:17;;;;;;;4.63;1.73;;;14.60;52.60;;;;;;3536322;40;19974;-85
2021/04/13 14:41:55;;;;;;;5.20;1.60;;;15.00;50.40;;;;;;3530725;40;20091;-84
2021/04/13 14:44:24;;;;;;;4.90;1.77;;;15.10;45.20;;;;;;3539682;40;20086;-85
2021/04/13 14:46:52;;;;;;;8.82;1.63;;;15.00;46.10;;;;;;3541633;40;20331;-84
2021/04/13 14:49:23;;;;;;;8.00;1.45;;;15.30;43.40;;;;;;3544165;40;20062;-87
2021/04/13 14:51:50;;;;;;;5.60;1.38;;;15.50;42.30;;;;;;3543681;40;20370;-86
2021/04/13 14:54:21;;;;;;;5.07;1.50;;;15.60;42.50;;;;;;3545395;40;20046;-87
2021/04/13 14:56:52;;;;;;;4.90;1.38;;;16.30;41.50;;;;;;3544758;40;20061;-87
2021/04/13 14:59:43;;;;;;;6.22;1.55;;;17.50;40.30;;;;;;3549858;40;20067;-89
2021/04/13 15:02:21;;;;;;;6.32;1.38;;;18.90;38.10;;;;;;3538825;40;20079;-85
2021/04/13 15:04:53;;;;;;;6.05;1.70;;;19.60;35.40;;;;;;3517243;40;20383;-86
2021/04/13 15:07:24;;;;;;;5.80;1.50;;;20.30;35.20;;;;;;3521909;40;20410;-86
2021/04/13 15:10:14;;;;;;;2.85;1.70;;;20.90;33.30;;;;;;3523169;40;20095;-86
2021/04/13 15:12:43;;;;;;;5.88;1.70;;;21.40;33.30;;;;;;3524721;40;20071;-87
2021/04/13 15:15:25;;;;;;;4.95;1.42;;;21.60;33.40;;;;;;3525246;40;20168;-86
2021/04/13 15:17:53;;;;;;;7.13;2.00;;;21.80;32.10;;;;;;3532651;40;20071;-86
2021/04/13 15:20:23;;;;;;;3.35;1.40;;;22.20;31.70;;;;;;3504533;40;20099;-86
2021/04/13 15:22:54;;;;;;;8.77;1.75;;;22.00;31.20;;;;;;3529130;40;20178;-85
2021/04/13 15:25:24;;;;;;;4.07;1.75;;;22.10;30.80;;;;;;3512398;40;20087;-83
2021/04/13 15:27:55;;;;;;;8.48;1.90;;;22.10;31.40;;;;;;3540259;40;20090;-82
2021/04/13 15:30:25;;;;;;;5.43;1.80;;;22.00;30.30;;;;;;3530109;40;20078;-81
2021/04/13 15:32:53;;;;;;;6.82;1.35;;;21.30;31.00;;;;;;3538098;40;20102;-83
2021/04/13 15:35:27;;;;;;;3.88;1.63;;;20.80;32.50;;;;;;3534181;40;20090;-81
2021/04/13 15:37:58;;;;;;;7.15;2.13;;;21.10;32.40;;;;;;3539707;40;20391;-84
2021/04/13 15:40:28;;;;;;;7.13;1.67;;;21.20;31.80;;;;;;3532343;40;20109;-84
2021/04/13 15:43:04;;;;;;;6.55;1.50;;;20.40;32.30;;;;;;3533449;40;20086;-83
2021/04/13 15:45:36;;;;;;;6.18;1.70;;;20.20;33.20;;;;;;3528898;40;20096;-82
2021/04/13 15:48:14;;;;;;;6.28;1.88;;;20.90;32.40;;;;;;3524261;40;20090;-83
2021/04/13 15:50:42;;;;;;;6.40;1.42;;;21.40;31.90;;;;;;3525162;40;20403;-85
2021/04/13 15:53:10;;;;;;;3.90;1.48;;;21.50;31.40;;;;;;3540501;40;20074;-83
2021/04/13 15:55:40;;;;;;;10.02;1.70;;;21.60;30.80;;;;;;3532096;40;20082;-85
2021/04/13 15:58:08;;;;;;;5.80;1.35;;;21.30;30.90;;;;;;3535417;40;20078;-86
2021/04/13 16:00:38;;;;;;;4.97;1.50;;;21.50;30.80;;;;;;3537337;40;20078;-85
2021/04/13 16:03:07;;;;;;;4.80;1.33;;;20.30;31.60;;;;;;3534094;40;20090;-85
2021/04/13 16:05:34;;;;;;;;;;;18.80;33.70;;;;;;3535482;40;20066;-84
2021/04/13 16:08:03;;;;;;;7.32;1.73;;;17.70;35.00;;;;;;3539710;40;19962;-87
2021/04/13 16:10:30;;;;;;;7.88;1.83;;;16.80;36.50;;;;;;3542517;40;20066;-85
2021/04/13 16:12:59;;;;;;;6.63;1.83;;;15.70;38.10;;;;;;3531224;40;20310;-87
2021/04/13 16:15:26;;;;;;;6.30;1.23;;;15.20;39.40;;;;;;3545537;40;20079;-84
2021/04/13 16:17:54;;;;;;;5.68;1.58;;;15.10;38.20;;;;;;3542745;40;20279;-85
2021/04/13 16:20:23;;;;;;;5.97;1.38;;;15.10;38.60;;;;;;3550048;40;20043;-84
2021/04/13 16:22:51;;;;;;;9.05;1.58;;;15.10;38.20;;;;;;3551078;40;20078;-82
2021/04/13 16:25:21;;;;;;;6.28;1.65;;;14.70;39.30;;;;;;3534137;40;20046;-86
2021/04/13 16:27:51;;;;;;;4.85;1.42;;;15.10;38.50;;;;;;3541126;40;20049;-84
2021/04/13 16:30:21;;;;;;;6.15;2.22;;;15.70;37.60;;;;;;3547051;40;20067;-85
2021/04/13 16:32:54;;;;;;;6.20;2.08;;;16.60;37.00;;;;;;3536155;40;20094;-85
2021/04/13 16:35:24;;;;;;;8.55;1.70;;;17.50;36.20;;;;;;3542901;40;20086;-84
2021/04/13 16:37:58;;;;;;;4.25;1.30;;;17.90;36.00;;;;;;3534920;40;20074;-85
2021/04/13 16:40:33;;;;;;;7.20;1.08;;;18.10;36.30;;;;;;3534828;40;20087;-83
2021/04/13 16:43:10;;;;;;;4.45;1.60;;;18.10;36.10;;;;;;3536874;40;20094;-86
2021/04/13 16:45:45;;;;;;;4.63;1.45;;;17.70;36.70;;;;;;3546203;40;20091;-85
2021/04/13 16:48:17;;;;;;;4.53;1.40;;;17.60;36.80;;;;;;3535809;40;20067;-84
2021/04/13 16:50:46;;;;;;;3.53;1.33;;;17.70;36.80;;;;;;3542050;40;20082;-86
2021/04/13 16:53:16;;;;;;;5.38;1.75;;;17.70;36.10;;;;;;3548103;40;20099;-86
2021/04/13 16:55:45;;;;;;;6.38;1.33;;;17.70;36.40;;;;;;3549396;40;20397;-84
2021/04/13 16:58:13;;;;;;;4.45;1.50;;;17.60;36.10;;;;;;3540297;40;20085;-84
2021/04/13 17:00:42;;;;;;;5.53;1.40;;;17.40;36.20;;;;;;3547497;40;20062;-85
2021/04/13 17:03:24;;;;;;;7.53;1.30;;;17.30;37.30;;;;;;3537134;40;20071;-81
2021/04/13 17:05:59;;;;;;;11.70;1.38;;;17.10;37.60;;;;;;3547405;40;20066;-80
2021/04/13 17:08:34;;;;;;;3.53;1.00;;;16.60;37.40;;;;;;3548197;40;20121;-80
2021/04/13 17:11:08;;;;;;;4.80;1.75;;;15.70;39.30;;;;;;3540580;40;20109;-81
2021/04/13 17:13:40;;;;;;;4.75;1.33;;;15.70;39.90;;;;;;3538107;40;20306;-80
2021/04/13 17:16:11;;;;;;;4.80;1.27;;;15.40;39.80;;;;;;3531727;40;20086;-80
2021/04/13 17:18:42;;;;;;;6.43;1.42;;;15.30;40.40;;;;;;3530528;40;20323;-81
2021/04/13 17:21:14;;;;;;;11.32;4.68;;;15.30;40.70;;;;;;3549892;40;20086;-81
2021/04/13 17:23:46;;;;;;;6.47;1.77;;;15.00;41.50;;;;;;3535316;40;20094;-81
2021/04/13 17:26:14;;;;;;;4.78;1.58;;;14.70;42.30;;;;;;3540714;40;20067;-82
2021/04/13 17:28:50;;;;;;;9.18;1.40;;;14.00;43.00;;;;;;3538996;40;20094;-81
2021/04/13 17:31:21;;;;;;;5.45;2.17;;;13.20;44.40;;;;;;3548503;40;20063;-81
2021/04/13 17:33:49;;;;;;;7.43;1.30;;;12.70;45.90;;;;;;3526004;40;20059;-80
2021/04/13 17:36:23;;;;;;;4.38;1.17;;;12.70;45.90;;;;;;3533055;40;20398;-80
2021/04/13 17:38:58;;;;;;;2.85;1.05;;;12.80;45.30;;;;;;3524738;40;20079;-80
2021/04/13 17:41:28;;;;;;;7.53;1.30;;;12.70;45.50;;;;;;3534107;40;20092;-81
2021/04/13 17:43:59;;;;;;;7.95;2.00;;;12.20;46.90;;;;;;3519140;40;20082;-81
2021/04/13 17:46:39;;;;;;;11.40;1.98;;;11.60;49.10;;;;;;3528824;40;20309;-81
2021/04/13 17:49:07;;;;;;;7.25;1.80;;;11.10;51.60;;;;;;3536746;40;20079;-81
2021/04/13 17:51:35;;;;;;;7.65;1.55;;;10.70;53.30;;;;;;3528310;40;20074;-81
2021/04/13 17:54:08;;;;;;;5.32;1.40;;;10.40;54.80;;;;;;3535188;40;20075;-81
2021/04/13 17:57:01;;;;;;;8.35;2.15;;;10.10;56.20;;;;;;3542502;40;20087;-81
2021/04/13 17:59:32;;;;;;;6.00;1.75;;;9.80;57.50;;;;;;3527179;40;20059;-79
2021/04/13 18:02:08;;;;;;;4.03;1.45;;;9.40;58.80;;;;;;3532013;40;20094;-81
2021/04/13 18:04:44;;;;;;;6.97;1.80;;;9.30;59.30;;;;;;3528534;40;20094;-81
2021/04/13 18:07:17;;;;;;;7.72;1.50;;;9.10;60.40;;;;;;3533377;40;20067;-81
2021/04/13 18:09:50;;;;;;;7.85;1.85;;;8.90;61.70;;;;;;3525331;40;20091;-81
2021/04/13 18:12:32;;;;;;;7.40;2.40;;;8.80;62.70;;;;;;3533418;40;20288;-81
2021/04/13 18:15:06;;;;;;;7.05;2.10;;;8.70;62.60;;;;;;3530691;40;20076;-80
2021/04/13 18:17:40;;;;;;;10.25;1.80;;;8.60;63.70;;;;;;3523775;40;20421;-80
2021/04/13 18:20:12;;;;;;;5.47;2.15;;;8.40;64.20;;;;;;3535489;40;20079;-80
2021/04/13 18:22:40;;;;;;;9.90;2.22;;;8.30;65.40;;;;;;3528942;40;20098;-80
2021/04/13 18:25:16;;;;;;;8.07;1.88;;;8.20;65.90;;;;;;3525899;40;20386;-80
2021/04/13 18:27:51;;;;;;;8.85;2.25;;;8.00;66.60;;;;;;3532541;40;20078;-83
2021/04/13 18:30:23;;;;;;;7.95;2.10;;;7.80;68.40;;;;;;3524878;40;20116;-81
2021/04/13 18:32:58;;;;;;;5.68;1.80;;;7.70;69.20;;;;;;3532163;40;20070;-80
2021/04/13 18:35:37;;;;;;;7.78;2.45;;;7.80;70.30;;;;;;3518756;40;20084;-79
2021/04/13 18:38:11;;;;;;;4.28;1.50;;;7.70;70.40;;;;;;3533245;40;20095;-81
2021/04/13 18:40:47;;;;;;;5.93;2.28;;;7.80;70.90;;;;;;3527302;40;20064;-79